Time;durP1;ratioP1;P1;durP2;ratioP2;P2;SDS_P1;SDS_P2;PMS_P1;PMS_P2;Temp;Humidity;BMP_temperature;BMP_pressure;BME280_temperature;BME280_humidity;BME280_pressure;Samples;Min_cycle;Max_cycle;Signal;HPM_P1;HPM_P2
2023/06/12 00:00:05;;;;;;;9.23;8.30;;;19.20;99.90;;;;;;6350622;28;20225;-61
2023/06/12 00:03:09;;;;;;;9.77;7.07;;;19.10;99.90;;;;;;6349984;28;20221;-61
2023/06/12 00:06:13;;;;;;;9.17;8.27;;;19.10;99.90;;;;;;6350714;28;20229;-61
2023/06/12 00:09:16;;;;;;;9.27;7.73;;;19.00;99.90;;;;;;6350424;28;20237;-61
2023/06/12 00:12:19;;;;;;;8.63;7.83;;;19.10;99.90;;;;;;6350715;28;20229;-62
2023/06/12 00:15:24;;;;;;;8.87;8.10;;;19.10;99.90;;;;;;6350223;28;20221;-62
2023/06/12 00:18:27;;;;;;;9.13;8.40;;;19.10;99.90;;;;;;6349901;28;20237;-62
2023/06/12 00:21:30;;;;;;;9.07;8.23;;;19.00;99.90;;;;;;6350266;28;20233;-62
2023/06/12 00:24:33;;;;;;;11.03;7.60;;;19.00;99.90;;;;;;6350025;28;20229;-62
2023/06/12 00:27:36;;;;;;;9.17;8.37;;;19.00;99.90;;;;;;6349929;28;20350;-62
2023/06/12 00:30:41;;;;;;;10.70;8.43;;;19.00;99.90;;;;;;6350033;28;20540;-62
2023/06/12 00:33:44;;;;;;;8.37;7.67;;;19.00;99.90;;;;;;6349645;28;20230;-62
2023/06/12 00:36:48;;;;;;;10.07;8.93;;;19.00;99.90;;;;;;6349708;28;20503;-62
2023/06/12 00:39:51;;;;;;;12.93;7.93;;;19.00;99.90;;;;;;6345630;28;20249;-62
2023/06/12 00:42:54;;;;;;;10.30;8.00;;;18.90;99.90;;;;;;6349747;28;20684;-62
2023/06/12 00:45:59;;;;;;;9.00;8.10;;;18.90;99.90;;;;;;6349514;28;20310;-62
2023/06/12 00:49:02;;;;;;;9.37;8.37;;;18.90;99.90;;;;;;6349869;28;20536;-62
2023/06/12 00:52:08;;;;;;;7.97;7.27;;;18.90;99.90;;;;;;6349400;28;20236;-62
2023/06/12 00:55:11;;;;;;;9.20;8.00;;;18.90;99.90;;;;;;6349872;28;20233;-62
2023/06/12 00:58:14;;;;;;;7.40;6.70;;;18.90;99.90;;;;;;6349296;28;20229;-62
2023/06/12 01:01:24;;;;;;;10.10;7.50;;;18.90;99.90;;;;;;6349355;28;20268;-62
2023/06/12 01:04:29;;;;;;;8.70;7.30;;;18.90;99.90;;;;;;6348724;28;20249;-62
2023/06/12 01:07:42;;;;;;;10.17;9.27;;;18.90;99.90;;;;;;6349169;28;20217;-62
2023/06/12 01:10:52;;;;;;;9.00;8.20;;;18.80;99.90;;;;;;6349426;28;20225;-62
2023/06/12 01:13:58;;;;;;;8.60;7.80;;;18.80;99.90;;;;;;6349499;28;20229;-62
2023/06/12 01:17:02;;;;;;;8.80;8.07;;;18.80;99.90;;;;;;6349234;28;20229;-62
2023/06/12 01:20:07;;;;;;;13.63;8.87;;;18.80;99.90;;;;;;6349279;28;20229;-62
2023/06/12 01:23:20;;;;;;;8.40;7.70;;;18.80;99.90;;;;;;6374859;28;20300;-62
2023/06/12 01:26:55;;;;;;;14.10;8.70;;;18.80;99.90;;;;;;6374336;28;20685;-62
2023/06/12 01:30:40;;;;;;;8.73;7.93;;;18.80;99.90;;;;;;6374665;28;20244;-61
2023/06/12 01:34:02;;;;;;;9.20;8.47;;;18.80;99.90;;;;;;6374729;28;20225;-62
2023/06/12 01:37:15;;;;;;;8.80;8.10;;;18.80;99.90;;;;;;6374284;28;20241;-62
2023/06/12 01:40:20;;;;;;;9.80;8.80;;;18.80;99.90;;;;;;6374374;28;20233;-62
2023/06/12 01:43:23;;;;;;;8.57;7.87;;;18.80;99.90;;;;;;6369583;28;20229;-62
2023/06/12 01:46:27;;;;;;;9.43;8.63;;;18.80;99.90;;;;;;6374302;28;20239;-62
2023/06/12 01:49:31;;;;;;;9.03;8.23;;;18.80;99.90;;;;;;6374428;28;20293;-62
2023/06/12 01:52:34;;;;;;;9.23;8.43;;;18.80;99.90;;;;;;6373766;28;20667;-62
2023/06/12 01:55:38;;;;;;;9.60;8.70;;;18.80;99.90;;;;;;6374314;28;20228;-62
2023/06/12 01:58:41;;;;;;;8.97;8.07;;;18.80;99.90;;;;;;6373673;28;20710;-62
2023/06/12 02:01:44;;;;;;;9.97;9.07;;;18.80;99.90;;;;;;6374309;28;20224;-62
2023/06/12 02:04:49;;;;;;;8.40;7.53;;;18.70;99.90;;;;;;6374135;28;20262;-62
2023/06/12 02:07:52;;;;;;;10.63;9.53;;;18.70;99.90;;;;;;6374399;28;20224;-62
2023/06/12 02:10:55;;;;;;;8.47;7.77;;;18.70;99.90;;;;;;6365627;28;20361;-62
2023/06/12 02:13:58;;;;;;;8.87;7.97;;;18.70;99.90;;;;;;6374099;28;20228;-62
2023/06/12 02:17:02;;;;;;;9.20;8.47;;;18.70;99.90;;;;;;6375781;27;20228;-62
2023/06/12 02:20:08;;;;;;;8.93;7.83;;;18.60;99.90;;;;;;6378317;27;20236;-62
2023/06/12 02:23:12;;;;;;;7.70;7.10;;;18.60;99.90;;;;;;6378670;27;20228;-62
2023/06/12 02:26:16;;;;;;;8.57;7.87;;;18.60;99.90;;;;;;6378007;27;20201;-63
2023/06/12 02:29:19;;;;;;;10.00;9.20;;;18.60;99.90;;;;;;6378107;27;20208;-62
2023/06/12 02:32:22;;;;;;;8.57;7.77;;;18.60;99.90;;;;;;6378276;27;20212;-62
2023/06/12 02:35:27;;;;;;;8.73;8.00;;;18.50;99.90;;;;;;6378344;27;20212;-62
2023/06/12 02:38:30;;;;;;;8.50;7.73;;;18.50;99.90;;;;;;6378263;27;20240;-62
2023/06/12 02:41:33;;;;;;;7.57;6.87;;;18.50;99.90;;;;;;6378607;27;20224;-62
2023/06/12 02:44:37;;;;;;;9.00;8.30;;;18.50;99.90;;;;;;6377955;27;20477;-62
2023/06/12 02:47:40;;;;;;;8.63;7.77;;;18.50;99.90;;;;;;6378093;27;20362;-62
2023/06/12 02:50:45;;;;;;;9.57;8.80;;;18.50;99.90;;;;;;6377553;27;20543;-62
2023/06/12 02:53:48;;;;;;;9.03;8.23;;;18.50;99.90;;;;;;6378053;27;20221;-62
2023/06/12 02:56:52;;;;;;;8.23;7.53;;;18.50;99.90;;;;;;6377926;27;20223;-62
2023/06/12 02:59:55;;;;;;;9.10;8.30;;;18.50;99.90;;;;;;6377853;27;20285;-62
2023/06/12 03:02:58;;;;;;;9.40;8.57;;;18.40;99.90;;;;;;6378042;27;20227;-62
2023/06/12 03:06:03;;;;;;;9.23;8.10;;;18.40;99.90;;;;;;6377633;27;20496;-62
2023/06/12 03:09:08;;;;;;;10.30;9.30;;;18.50;99.90;;;;;;6377334;27;20231;-61
2023/06/12 03:12:12;;;;;;;8.60;7.80;;;18.50;99.90;;;;;;6377643;27;20528;-61
2023/06/12 03:15:16;;;;;;;9.50;8.70;;;18.40;99.90;;;;;;6377299;27;20225;-62
2023/06/12 03:18:20;;;;;;;8.47;7.77;;;18.40;99.90;;;;;;6377277;27;20470;-62
2023/06/12 03:21:24;;;;;;;8.67;7.90;;;18.40;99.90;;;;;;6377489;27;20805;-62
2023/06/12 03:24:29;;;;;;;8.23;7.53;;;18.40;99.90;;;;;;6377070;27;20237;-62
2023/06/12 03:27:32;;;;;;;9.43;8.50;;;18.40;99.90;;;;;;6381874;27;20462;-62
2023/06/12 03:30:36;;;;;;;9.57;8.67;;;18.50;99.90;;;;;;6381224;27;20695;-61
2023/06/12 03:33:39;;;;;;;8.13;7.53;;;18.50;99.90;;;;;;6377120;27;20809;-61
2023/06/12 03:36:44;;;;;;;11.03;8.43;;;18.50;99.90;;;;;;6376727;27;20239;-62
2023/06/12 03:39:47;;;;;;;9.10;8.20;;;18.50;99.90;;;;;;6376600;27;20233;-61
2023/06/12 03:42:50;;;;;;;8.27;7.57;;;18.50;99.90;;;;;;6376606;27;20466;-61
2023/06/12 03:45:53;;;;;;;8.33;7.63;;;18.60;99.90;;;;;;6376516;27;20466;-61
2023/06/12 03:48:57;;;;;;;9.73;8.30;;;18.60;99.90;;;;;;6376511;27;20458;-61
2023/06/12 03:52:01;;;;;;;9.00;8.13;;;18.60;99.90;;;;;;6367208;27;20530;-61
2023/06/12 03:55:05;;;;;;;9.30;7.90;;;18.60;99.90;;;;;;6377281;27;20474;-61
2023/06/12 03:58:08;;;;;;;9.20;8.30;;;18.60;99.90;;;;;;6376854;27;20231;-61
2023/06/12 04:01:11;;;;;;;8.67;7.97;;;18.60;99.90;;;;;;6376615;27;20248;-61
2023/06/12 04:04:14;;;;;;;9.00;8.30;;;18.60;99.90;;;;;;6376646;27;20470;-61
2023/06/12 04:07:21;;;;;;;10.13;9.23;;;18.60;99.90;;;;;;6376155;27;20470;-60
2023/06/12 04:10:24;;;;;;;8.50;7.80;;;18.60;99.90;;;;;;6376205;27;20235;-60
2023/06/12 04:13:27;;;;;;;10.37;7.97;;;18.60;99.90;;;;;;6397396;27;20474;-61
2023/06/12 04:16:30;;;;;;;8.93;8.10;;;18.60;99.90;;;;;;6402125;27;20224;-61
2023/06/12 04:19:33;;;;;;;8.90;8.20;;;18.70;99.90;;;;;;6401565;27;20243;-61
2023/06/12 04:22:41;;;;;;;9.07;8.47;;;18.70;99.90;;;;;;6401442;27;20679;-61
2023/06/12 04:25:45;;;;;;;9.00;8.20;;;18.80;99.90;;;;;;6401750;27;20228;-61
2023/06/12 04:28:49;;;;;;;9.47;8.77;;;18.80;99.90;;;;;;6401129;27;20220;-61
2023/06/12 04:31:54;;;;;;;11.30;8.03;;;18.80;99.90;;;;;;6401422;27;20238;-61
2023/06/12 04:34:58;;;;;;;9.43;8.10;;;18.90;99.90;;;;;;6401224;27;20684;-61
2023/06/12 04:38:05;;;;;;;7.77;7.10;;;18.90;99.90;;;;;;6401080;27;20507;-61
2023/06/12 04:41:09;;;;;;;9.13;8.33;;;18.90;99.90;;;;;;6400423;27;20231;-61
2023/06/12 04:44:13;;;;;;;8.57;7.87;;;19.00;99.90;;;;;;6401000;27;20254;-61
2023/06/12 04:47:17;;;;;;;9.80;8.80;;;19.00;99.90;;;;;;6401790;27;20348;-61
2023/06/12 04:50:20;;;;;;;9.47;8.67;;;19.00;99.90;;;;;;6401095;27;20652;-61
2023/06/12 04:53:29;;;;;;;9.33;8.43;;;19.10;99.90;;;;;;6401323;27;20200;-61
2023/06/12 04:56:33;;;;;;;9.50;8.70;;;19.10;99.90;;;;;;6401464;27;20224;-61
2023/06/12 04:59:38;;;;;;;8.50;7.83;;;19.10;99.90;;;;;;6400535;27;20517;-61
2023/06/12 05:02:42;;;;;;;8.93;8.13;;;19.20;99.90;;;;;;6400614;27;20228;-61
2023/06/12 05:05:46;;;;;;;8.03;7.43;;;19.30;99.90;;;;;;6400755;27;20303;-61
2023/06/12 05:08:50;;;;;;;8.90;8.20;;;19.40;99.90;;;;;;6400537;27;20220;-61
2023/06/12 05:11:54;;;;;;;9.13;8.30;;;19.40;99.90;;;;;;6400621;27;20238;-61
2023/06/12 05:14:59;;;;;;;9.67;8.77;;;19.60;99.90;;;;;;6400127;27;20258;-61
2023/06/12 05:18:02;;;;;;;9.40;8.50;;;19.70;99.90;;;;;;6400819;27;20231;-61
2023/06/12 05:21:06;;;;;;;9.47;8.50;;;19.80;99.90;;;;;;6400301;27;20220;-61
2023/06/12 05:24:11;;;;;;;8.47;7.83;;;19.90;99.90;;;;;;6400657;27;20660;-61
2023/06/12 05:27:14;;;;;;;9.43;7.97;;;20.00;99.90;;;;;;6400525;27;20532;-61
2023/06/12 05:30:17;;;;;;;12.90;8.90;;;20.20;99.90;;;;;;6400149;27;20231;-61
2023/06/12 05:33:21;;;;;;;9.77;8.57;;;20.20;99.90;;;;;;6400569;27;20307;-61
2023/06/12 05:36:24;;;;;;;9.60;8.70;;;20.30;99.90;;;;;;6400111;27;20246;-61
2023/06/12 05:39:29;;;;;;;9.20;8.40;;;20.30;99.90;;;;;;6400445;27;20518;-61
2023/06/12 05:42:32;;;;;;;9.50;8.60;;;20.40;99.90;;;;;;6400410;27;20220;-61
2023/06/12 05:45:35;;;;;;;9.73;8.90;;;20.50;99.90;;;;;;6400252;27;20234;-61
2023/06/12 05:48:38;;;;;;;9.63;8.83;;;20.50;99.90;;;;;;6400255;27;20224;-61
2023/06/12 05:51:42;;;;;;;11.07;8.40;;;20.60;99.90;;;;;;6403198;27;20232;-61
2023/06/12 05:54:47;;;;;;;9.90;9.20;;;20.70;99.90;;;;;;6405007;27;20234;-61
2023/06/12 05:57:51;;;;;;;9.67;8.77;;;20.60;99.90;;;;;;6404724;27;20706;-61
2023/06/12 06:00:55;;;;;;;11.23;9.97;;;20.70;99.90;;;;;;6404464;27;20265;-61
2023/06/12 06:03:59;;;;;;;10.30;9.33;;;20.70;99.90;;;;;;6405184;27;20220;-60
2023/06/12 06:07:02;;;;;;;10.07;9.07;;;20.80;99.90;;;;;;6404671;27;20246;-60
2023/06/12 06:10:21;;;;;;;9.13;8.33;;;20.80;99.90;;;;;;6405041;27;20220;-61
2023/06/12 06:13:27;;;;;;;8.90;8.20;;;20.80;99.90;;;;;;6404534;27;20232;-61
2023/06/12 06:16:30;;;;;;;10.40;8.73;;;20.90;99.90;;;;;;6404525;27;20219;-61
2023/06/12 06:19:51;;;;;;;9.93;8.93;;;21.00;99.90;;;;;;6404180;27;20304;-60
2023/06/12 06:22:54;;;;;;;9.90;8.87;;;21.00;99.90;;;;;;6404469;27;20224;-60
2023/06/12 06:25:59;;;;;;;9.93;8.93;;;21.10;99.90;;;;;;6404666;27;20238;-62
2023/06/12 06:29:02;;;;;;;10.13;9.27;;;21.20;99.90;;;;;;6406104;27;20659;-62
2023/06/12 06:32:17;;;;;;;9.60;8.70;;;21.20;99.90;;;;;;6404412;27;20261;-62
2023/06/12 06:35:20;;;;;;;10.63;9.63;;;21.30;99.90;;;;;;6404618;27;20200;-62
2023/06/12 06:38:24;;;;;;;11.20;9.90;;;21.20;99.90;;;;;;6403962;27;20200;-62
2023/06/12 06:41:29;;;;;;;10.60;9.60;;;21.10;99.90;;;;;;6404066;27;20224;-62
2023/06/12 06:44:32;;;;;;;9.53;8.83;;;21.20;99.90;;;;;;6403849;27;20234;-62
2023/06/12 06:47:36;;;;;;;11.07;10.13;;;21.40;99.90;;;;;;6404221;27;20223;-62
2023/06/12 06:50:39;;;;;;;11.73;10.53;;;21.70;99.90;;;;;;6403627;27;20659;-61
2023/06/12 06:53:42;;;;;;;9.50;8.70;;;21.70;99.90;;;;;;6403810;27;20222;-61
2023/06/12 06:56:48;;;;;;;11.23;10.17;;;22.00;99.90;;;;;;6403962;27;20355;-61
2023/06/12 06:59:54;;;;;;;10.23;9.33;;;22.50;99.90;;;;;;6403681;27;20308;-62
2023/06/12 07:02:57;;;;;;;10.87;10.03;;;22.90;99.90;;;;;;6393567;27;20228;-62
2023/06/12 07:06:02;;;;;;;11.50;10.37;;;23.40;99.90;;;;;;6403232;27;20674;-62
2023/06/12 07:09:05;;;;;;;10.27;9.27;;;23.70;99.90;;;;;;6403675;27;20216;-61
2023/06/12 07:12:12;;;;;;;10.00;9.20;;;23.70;99.90;;;;;;6403633;27;20234;-61
2023/06/12 07:15:15;;;;;;;10.40;9.37;;;23.90;99.90;;;;;;6403290;27;20232;-61
2023/06/12 07:18:19;;;;;;;8.90;8.20;;;23.60;99.90;;;;;;6403432;27;20235;-61
2023/06/12 07:21:22;;;;;;;11.07;8.77;;;23.70;99.90;;;;;;6402752;27;20562;-61
2023/06/12 07:24:25;;;;;;;8.50;7.80;;;23.50;99.90;;;;;;6403047;27;20319;-61
2023/06/12 07:27:30;;;;;;;7.87;7.17;;;23.60;99.90;;;;;;6402709;27;20228;-61
2023/06/12 07:30:34;;;;;;;8.50;7.80;;;23.90;99.90;;;;;;6402565;27;20557;-61
2023/06/12 07:33:37;;;;;;;7.83;7.20;;;23.70;99.90;;;;;;6402791;27;20227;-61
2023/06/12 07:36:40;;;;;;;8.50;6.87;;;24.50;99.50;;;;;;6402725;27;20237;-61
2023/06/12 07:39:43;;;;;;;7.47;6.87;;;26.40;96.70;;;;;;6402559;27;20237;-61
2023/06/12 07:42:48;;;;;;;6.83;6.33;;;27.40;93.90;;;;;;6402944;27;20220;-61
2023/06/12 07:45:52;;;;;;;7.27;6.70;;;28.70;91.30;;;;;;6402298;27;20227;-61
2023/06/12 07:48:55;;;;;;;7.70;7.10;;;28.60;88.10;;;;;;6402209;27;20310;-61
2023/06/12 07:51:58;;;;;;;7.60;7.00;;;28.90;86.60;;;;;;6401999;27;20245;-61
2023/06/12 07:55:03;;;;;;;7.00;6.40;;;28.50;85.40;;;;;;6402384;27;20558;-61
2023/06/12 07:58:08;;;;;;;7.60;7.00;;;27.50;87.80;;;;;;6402235;27;20236;-61
2023/06/12 08:01:11;;;;;;;7.70;7.10;;;27.70;86.50;;;;;;6402226;27;20219;-61
2023/06/12 08:04:14;;;;;;;6.87;6.33;;;27.50;87.80;;;;;;6401995;27;20576;-61
2023/06/12 08:07:19;;;;;;;7.13;6.63;;;27.60;87.30;;;;;;6395937;27;20223;-61
2023/06/12 08:10:22;;;;;;;8.00;7.37;;;26.60;90.60;;;;;;6360761;27;20224;-61
2023/06/12 08:13:30;;;;;;;7.40;6.70;;;26.60;90.70;;;;;;6361860;27;20224;-61
2023/06/12 08:16:33;;;;;;;8.03;7.43;;;26.80;90.70;;;;;;6373780;27;20231;-61
2023/06/12 08:19:36;;;;;;;7.50;7.00;;;27.00;88.70;;;;;;6350466;28;20240;-62
2023/06/12 08:22:41;;;;;;;7.80;7.20;;;27.00;87.70;;;;;;6349948;28;20549;-61
2023/06/12 08:25:44;;;;;;;7.50;6.90;;;26.90;86.70;;;;;;6357620;27;20224;-62
2023/06/12 08:28:51;;;;;;;8.10;7.47;;;26.70;86.80;;;;;;6375368;27;20235;-60
2023/06/12 08:31:54;;;;;;;8.20;7.57;;;26.40;87.00;;;;;;6375224;27;20224;-60
2023/06/12 08:34:58;;;;;;;7.50;6.80;;;26.50;87.90;;;;;;6375105;27;20671;-59
2023/06/12 08:38:01;;;;;;;8.17;7.40;;;26.80;87.60;;;;;;6374879;27;20325;-59
2023/06/12 08:41:05;;;;;;;7.10;6.50;;;25.90;87.00;;;;;;6379214;27;20237;-60
2023/06/12 08:44:10;;;;;;;8.00;7.40;;;25.80;88.50;;;;;;6357521;27;20358;-59
2023/06/12 08:47:15;;;;;;;8.07;7.47;;;26.20;87.20;;;;;;6349798;28;20251;-59
2023/06/12 08:50:19;;;;;;;7.70;6.87;;;26.50;86.30;;;;;;6363398;27;20237;-59
2023/06/12 08:53:23;;;;;;;7.23;6.63;;;26.50;85.30;;;;;;6374388;27;20639;-59
2023/06/12 08:56:27;;;;;;;7.83;7.10;;;25.90;84.90;;;;;;6371575;27;20759;-60
2023/06/12 08:59:31;;;;;;;7.33;6.50;;;25.50;86.60;;;;;;6375307;27;20235;-60
2023/06/12 09:02:35;;;;;;;7.37;6.60;;;25.50;87.80;;;;;;6374790;27;20228;-60
2023/06/12 09:05:40;;;;;;;7.23;6.50;;;25.70;87.60;;;;;;6375023;27;20220;-60
2023/06/12 09:08:43;;;;;;;7.63;7.00;;;26.00;85.80;;;;;;6374004;28;20221;-66
2023/06/12 09:11:49;;;;;;;9.10;7.10;;;25.30;88.00;;;;;;6374931;28;20232;-60
2023/06/12 09:14:54;;;;;;;8.20;7.47;;;25.40;87.90;;;;;;6375667;28;20230;-60
2023/06/12 09:17:57;;;;;;;7.80;7.30;;;25.60;85.90;;;;;;6358698;28;20235;-60
2023/06/12 09:21:05;;;;;;;7.90;7.20;;;25.30;88.20;;;;;;6348897;28;20541;-60
2023/06/12 09:24:10;;;;;;;8.00;7.20;;;25.80;88.80;;;;;;6348750;28;20220;-60
2023/06/12 09:27:14;;;;;;;7.40;6.70;;;25.90;87.20;;;;;;6353023;28;20239;-60
2023/06/12 09:30:18;;;;;;;7.17;6.67;;;25.90;87.90;;;;;;6353616;28;20247;-61
2023/06/12 09:33:27;;;;;;;8.07;7.37;;;25.80;87.30;;;;;;6354486;28;20224;-60
2023/06/12 09:36:31;;;;;;;8.13;7.33;;;25.60;88.00;;;;;;6354135;28;20233;-60
2023/06/12 09:39:44;;;;;;;8.87;8.00;;;25.40;88.80;;;;;;6358257;27;20216;-60
2023/06/12 09:42:47;;;;;;;7.63;7.03;;;25.60;88.40;;;;;;6376273;27;20358;-60
2023/06/12 09:45:52;;;;;;;8.37;7.67;;;25.70;88.30;;;;;;6378501;27;20224;-61
2023/06/12 09:48:58;;;;;;;7.90;7.30;;;25.60;87.60;;;;;;6379253;27;20269;-60
2023/06/12 09:52:22;;;;;;;9.00;8.30;;;25.40;88.90;;;;;;6379413;27;20221;-61
2023/06/12 09:55:27;;;;;;;7.40;6.80;;;25.80;86.80;;;;;;6379291;27;20224;-61
2023/06/12 09:58:32;;;;;;;7.73;7.10;;;25.80;86.50;;;;;;6379524;27;20220;-60
2023/06/12 10:01:39;;;;;;;7.13;6.53;;;25.80;88.00;;;;;;6379038;27;20239;-61
2023/06/12 10:04:52;;;;;;;6.83;6.23;;;25.80;85.80;;;;;;6379376;27;20361;-61
2023/06/12 10:07:59;;;;;;;8.13;7.33;;;26.00;86.60;;;;;;6378865;27;20224;-61
2023/06/12 10:11:04;;;;;;;8.07;7.27;;;25.40;86.50;;;;;;6374538;27;20549;-62
2023/06/12 10:14:07;;;;;;;7.37;6.73;;;25.30;87.20;;;;;;6378810;27;20229;-60
2023/06/12 10:17:13;;;;;;;8.23;7.73;;;25.30;87.20;;;;;;6360270;27;20538;-61
2023/06/12 10:20:17;;;;;;;7.43;6.67;;;25.50;86.40;;;;;;6352929;28;20659;-61
2023/06/12 10:23:22;;;;;;;8.00;6.77;;;25.40;86.90;;;;;;6371016;27;20235;-60
2023/06/12 10:26:25;;;;;;;8.10;7.30;;;25.80;86.70;;;;;;6378624;27;20204;-61
2023/06/12 10:29:30;;;;;;;7.33;6.50;;;26.40;84.50;;;;;;6378794;27;20242;-61
2023/06/12 10:32:38;;;;;;;8.17;7.47;;;26.70;83.90;;;;;;6377683;27;20361;-60
2023/06/12 10:35:42;;;;;;;8.07;7.37;;;26.60;82.00;;;;;;6374294;27;20717;-60
2023/06/12 10:38:45;;;;;;;7.97;7.37;;;26.70;81.20;;;;;;6374368;27;20224;-60
2023/06/12 10:41:53;;;;;;;6.80;6.10;;;27.00;80.30;;;;;;6376297;27;20224;-60
2023/06/12 10:45:01;;;;;;;10.03;6.40;;;26.80;78.80;;;;;;6373248;27;20257;-60
2023/06/12 10:48:17;;;;;;;6.90;6.40;;;26.50;80.40;;;;;;6375637;27;20325;-60
2023/06/12 10:51:33;;;;;;;7.80;7.20;;;26.10;79.70;;;;;;6376055;27;20220;-60
2023/06/12 10:54:36;;;;;;;7.80;6.70;;;26.20;80.20;;;;;;6380764;27;20311;-59
2023/06/12 10:57:39;;;;;;;8.00;7.30;;;26.00;82.00;;;;;;6377568;27;20316;-59
2023/06/12 11:00:47;;;;;;;8.33;7.70;;;25.60;83.10;;;;;;6377784;27;20232;-59
2023/06/12 11:03:52;;;;;;;8.07;7.33;;;25.50;82.50;;;;;;6377721;27;20232;-59
2023/06/12 11:06:56;;;;;;;8.63;7.73;;;25.50;82.80;;;;;;6377681;27;20289;-60
2023/06/12 11:10:08;;;;;;;8.83;7.93;;;25.70;82.30;;;;;;6377389;27;20220;-59
2023/06/12 11:13:11;;;;;;;7.67;7.10;;;26.10;82.00;;;;;;6377511;27;20307;-60
2023/06/12 11:16:15;;;;;;;8.33;7.73;;;26.30;80.40;;;;;;6375699;27;20281;-59
2023/06/12 11:19:20;;;;;;;8.40;7.80;;;25.40;81.60;;;;;;6347201;28;20232;-60
2023/06/12 11:22:24;;;;;;;8.60;7.90;;;25.40;83.00;;;;;;6351396;28;20684;-59
2023/06/12 11:25:28;;;;;;;9.13;7.93;;;25.40;83.40;;;;;;6351383;28;20239;-59
2023/06/12 11:28:31;;;;;;;8.13;7.43;;;25.50;83.50;;;;;;6351354;28;20810;-59
2023/06/12 11:31:37;;;;;;;8.03;7.33;;;25.80;83.20;;;;;;6367781;27;20217;-60
2023/06/12 11:34:42;;;;;;;8.27;7.47;;;26.10;82.10;;;;;;6376833;27;20247;-60
2023/06/12 11:37:45;;;;;;;7.60;7.00;;;26.00;80.90;;;;;;6376641;27;20676;-59
2023/06/12 11:40:53;;;;;;;7.80;7.20;;;25.50;81.00;;;;;;6376698;27;20228;-60
2023/06/12 11:43:56;;;;;;;7.57;6.87;;;25.00;81.60;;;;;;6389072;27;20731;-59
2023/06/12 11:47:00;;;;;;;7.27;6.77;;;25.10;82.60;;;;;;6402355;27;20230;-60
2023/06/12 11:50:24;;;;;;;6.90;6.40;;;25.30;81.60;;;;;;6400960;27;20228;-60
2023/06/12 11:53:31;;;;;;;7.50;6.87;;;25.40;80.80;;;;;;6402598;27;20203;-61
2023/06/12 11:56:41;;;;;;;8.13;7.33;;;25.60;80.30;;;;;;6401920;27;20246;-60
2023/06/12 11:59:49;;;;;;;7.77;7.17;;;25.90;79.20;;;;;;6401858;27;20693;-60
2023/06/12 12:02:53;;;;;;;7.00;6.40;;;26.00;76.60;;;;;;6401971;27;20238;-60
2023/06/12 12:05:58;;;;;;;6.73;6.23;;;26.30;76.60;;;;;;6402445;27;20227;-60
2023/06/12 12:09:02;;;;;;;8.83;8.10;;;26.20;75.90;;;;;;6401079;27;20679;-60
2023/06/12 12:12:10;;;;;;;6.87;6.23;;;26.40;76.00;;;;;;6375568;27;20269;-61
2023/06/12 12:15:15;;;;;;;9.47;6.37;;;26.40;76.00;;;;;;6376109;27;20273;-60
2023/06/12 12:18:18;;;;;;;6.90;6.40;;;26.30;76.20;;;;;;6356983;27;20235;-60
2023/06/12 12:21:24;;;;;;;7.57;6.90;;;26.30;75.70;;;;;;6350555;28;20569;-61
2023/06/12 12:24:36;;;;;;;8.63;6.50;;;26.00;75.60;;;;;;6350517;28;20244;-61
2023/06/12 12:27:39;;;;;;;7.37;6.87;;;26.10;75.60;;;;;;6377922;27;20664;-60
2023/06/12 12:30:43;;;;;;;7.50;6.80;;;25.90;75.00;;;;;;6375765;27;20224;-61
2023/06/12 12:33:46;;;;;;;7.10;6.50;;;25.70;75.40;;;;;;6376973;27;20270;-61
2023/06/12 12:36:52;;;;;;;7.23;6.73;;;25.70;75.90;;;;;;6375870;27;20224;-61
2023/06/12 12:39:55;;;;;;;8.50;6.90;;;26.00;75.40;;;;;;6375443;27;20243;-61
2023/06/12 12:42:58;;;;;;;8.10;7.10;;;25.80;75.60;;;;;;6379885;27;20215;-61
2023/06/12 12:46:01;;;;;;;6.00;5.60;;;25.40;76.60;;;;;;6400645;27;20307;-61
2023/06/12 12:49:05;;;;;;;7.77;6.03;;;25.60;75.80;;;;;;6401048;27;20224;-61
2023/06/12 12:52:09;;;;;;;6.60;5.90;;;26.10;75.30;;;;;;6380846;27;20226;-60
2023/06/12 12:55:24;;;;;;;6.60;5.40;;;26.30;74.30;;;;;;6373087;27;20224;-60
2023/06/12 12:58:27;;;;;;;6.60;6.10;;;26.50;74.10;;;;;;6374447;27;20224;-64
2023/06/12 13:01:30;;;;;;;7.70;7.00;;;26.70;72.10;;;;;;6373471;27;20254;-61
2023/06/12 13:04:33;;;;;;;6.67;6.17;;;26.70;72.90;;;;;;6375051;27;20227;-61
2023/06/12 13:07:38;;;;;;;6.90;6.40;;;26.80;73.00;;;;;;6374825;28;20236;-61
2023/06/12 13:10:41;;;;;;;7.20;6.50;;;26.10;72.60;;;;;;6374700;28;20303;-61
2023/06/12 13:13:44;;;;;;;7.27;6.57;;;25.70;74.60;;;;;;6374919;28;20226;-62
2023/06/12 13:16:48;;;;;;;6.00;5.50;;;25.60;73.70;;;;;;6375265;28;20234;-61
2023/06/12 13:19:54;;;;;;;6.63;6.13;;;25.80;73.10;;;;;;6374357;28;20227;-60
2023/06/12 13:22:58;;;;;;;7.30;6.63;;;26.10;71.40;;;;;;6374741;28;20663;-61
2023/06/12 13:26:02;;;;;;;6.20;5.70;;;26.30;71.70;;;;;;6374717;28;20321;-62
2023/06/12 13:29:05;;;;;;;6.50;5.90;;;26.60;72.60;;;;;;6364971;28;20292;-60
2023/06/12 13:32:08;;;;;;;7.20;6.60;;;26.50;72.80;;;;;;6374639;27;20261;-60
2023/06/12 13:35:15;;;;;;;7.30;6.70;;;26.30;72.00;;;;;;6374513;27;20644;-61
2023/06/12 13:38:19;;;;;;;6.70;6.13;;;26.30;72.40;;;;;;6375034;27;20197;-61
2023/06/12 13:41:23;;;;;;;7.23;6.47;;;25.90;73.70;;;;;;6374298;27;20262;-62
2023/06/12 13:44:26;;;;;;;6.70;6.20;;;25.30;73.80;;;;;;6374150;27;20299;-61
2023/06/12 13:47:36;;;;;;;6.53;5.90;;;24.70;75.30;;;;;;6374973;28;20253;-60
2023/06/12 13:50:40;;;;;;;7.57;7.07;;;25.00;76.30;;;;;;6374300;27;20663;-61
2023/06/12 13:53:44;;;;;;;7.20;6.60;;;25.20;75.60;;;;;;6374860;27;20239;-61
2023/06/12 13:56:48;;;;;;;6.00;5.50;;;25.20;74.20;;;;;;6374356;27;20710;-60
2023/06/12 13:59:51;;;;;;;6.73;6.13;;;24.80;74.60;;;;;;6374506;27;20500;-61
2023/06/12 14:02:54;;;;;;;6.83;6.23;;;24.80;75.30;;;;;;6374722;27;20228;-61
2023/06/12 14:05:58;;;;;;;6.77;6.10;;;24.80;75.10;;;;;;6374255;27;20228;-61
2023/06/12 14:09:02;;;;;;;7.10;6.50;;;24.70;74.80;;;;;;6374626;27;20327;-61
2023/06/12 14:12:09;;;;;;;8.70;5.67;;;24.40;75.30;;;;;;6375999;27;20231;-61
2023/06/12 14:15:12;;;;;;;6.77;5.70;;;24.50;75.60;;;;;;6379438;27;20242;-61
2023/06/12 14:18:15;;;;;;;6.43;5.93;;;24.50;74.20;;;;;;6360166;27;20236;-60
2023/06/12 14:21:20;;;;;;;6.70;6.10;;;24.80;73.90;;;;;;6353417;28;20234;-61
2023/06/12 14:24:24;;;;;;;6.43;6.00;;;24.90;73.80;;;;;;6353069;28;20591;-62
2023/06/12 14:27:39;;;;;;;6.40;5.90;;;24.80;74.40;;;;;;6352919;28;20225;-63
2023/06/12 14:30:42;;;;;;;7.10;6.50;;;25.00;74.40;;;;;;6348161;27;20589;-61
2023/06/12 14:33:45;;;;;;;7.43;6.73;;;24.80;74.40;;;;;;6373633;27;20213;-61
2023/06/12 14:36:49;;;;;;;6.90;6.30;;;24.30;76.50;;;;;;6380103;27;20235;-61
2023/06/12 14:39:54;;;;;;;8.73;6.80;;;24.20;76.30;;;;;;6382332;27;20235;-61
2023/06/12 14:42:57;;;;;;;8.40;6.57;;;24.40;76.60;;;;;;6385599;27;20682;-61
2023/06/12 14:46:01;;;;;;;6.67;6.17;;;24.50;76.10;;;;;;6384792;27;20680;-61
2023/06/12 14:49:04;;;;;;;7.10;6.47;;;24.50;74.10;;;;;;6378647;27;20323;-61
2023/06/12 14:52:08;;;;;;;7.53;6.83;;;24.20;74.80;;;;;;6379540;27;20673;-61
2023/06/12 14:55:34;;;;;;;7.10;6.43;;;24.20;74.40;;;;;;6377785;27;20321;-61
2023/06/12 14:58:37;;;;;;;6.93;6.37;;;24.40;75.10;;;;;;6377631;27;20224;-61
2023/06/12 15:01:40;;;;;;;6.27;5.77;;;24.40;74.60;;;;;;6377647;27;20228;-61
2023/06/12 15:04:43;;;;;;;7.30;6.70;;;24.50;75.10;;;;;;6373876;27;20220;-62
2023/06/12 15:07:46;;;;;;;7.20;6.60;;;24.80;74.50;;;;;;6376780;27;20217;-60
2023/06/12 15:10:51;;;;;;;7.30;6.70;;;24.70;73.20;;;;;;6377193;27;20240;-61
2023/06/12 15:13:54;;;;;;;7.17;6.47;;;24.80;73.30;;;;;;6377176;27;20226;-61
2023/06/12 15:16:57;;;;;;;6.37;5.87;;;24.60;72.30;;;;;;6376995;27;20518;-62
2023/06/12 15:20:01;;;;;;;7.07;6.03;;;24.20;73.80;;;;;;6377346;27;20247;-61
2023/06/12 15:23:04;;;;;;;6.73;6.20;;;24.00;74.70;;;;;;6376826;27;20225;-62
2023/06/12 15:26:08;;;;;;;6.20;5.60;;;23.90;75.20;;;;;;6377386;27;20301;-62
2023/06/12 15:29:12;;;;;;;6.37;5.87;;;23.70;76.60;;;;;;6377652;27;20350;-62
2023/06/12 15:32:15;;;;;;;6.50;5.37;;;23.70;76.30;;;;;;6379007;27;20238;-62
2023/06/12 15:35:19;;;;;;;5.67;5.00;;;23.80;75.80;;;;;;6377712;27;20223;-62
2023/06/12 15:38:36;;;;;;;5.60;5.10;;;23.60;74.30;;;;;;6377079;27;20205;-61
2023/06/12 15:41:40;;;;;;;5.77;5.20;;;23.50;75.90;;;;;;6376217;27;20224;-61
2023/06/12 15:44:45;;;;;;;5.40;5.00;;;23.30;75.00;;;;;;6375451;27;20672;-60
2023/06/12 15:47:48;;;;;;;6.27;5.77;;;23.30;74.40;;;;;;6376705;27;20285;-62
2023/06/12 15:50:51;;;;;;;9.90;6.03;;;23.20;74.00;;;;;;6377520;27;20329;-62
2023/06/12 15:53:55;;;;;;;6.67;6.10;;;23.20;73.40;;;;;;6375921;27;20645;-62
2023/06/12 15:56:59;;;;;;;6.00;5.40;;;23.20;72.80;;;;;;6375710;27;20212;-62
2023/06/12 16:00:03;;;;;;;5.90;5.30;;;23.20;72.90;;;;;;6373280;27;20237;-62